createdAt,value
2018-10-01T00:00:55.914Z,9.40
2018-10-01T00:03:25.606Z,9.50
2018-10-01T00:05:55.326Z,9.30
2018-10-01T00:08:24.967Z,9.30
2018-10-01T00:10:55.635Z,9.30
2018-10-01T00:13:25.083Z,9.30
2018-10-01T00:15:54.639Z,9.30
2018-10-01T00:18:24.118Z,9.20
2018-10-01T00:20:58.772Z,9.20
2018-10-01T00:23:28.397Z,9.20
2018-10-01T00:25:57.937Z,9.30
2018-10-01T00:28:27.520Z,9.20
2018-10-01T00:30:56.944Z,9.10
2018-10-01T00:33:27.449Z,9.10
2018-10-01T00:35:56.947Z,9.00
2018-10-01T00:38:27.456Z,9.10
2018-10-01T00:40:56.897Z,9.00
2018-10-01T00:43:26.331Z,9.00
2018-10-01T00:45:56.086Z,9.00
2018-10-01T00:48:25.785Z,9.00
2018-10-01T00:50:55.602Z,8.90
2018-10-01T00:53:25.604Z,9.00
2018-10-01T00:55:55.218Z,8.90
2018-10-01T00:58:24.967Z,9.00
2018-10-01T01:00:54.500Z,9.00
2018-10-01T01:03:24.180Z,9.00
2018-10-01T01:05:53.546Z,9.10
2018-10-01T01:08:23.076Z,9.20
2018-10-01T01:10:52.815Z,9.30
2018-10-01T01:13:22.528Z,9.20
2018-10-01T01:15:51.988Z,9.00
2018-10-01T01:18:21.442Z,9.10
2018-10-01T01:20:51.276Z,9.10
2018-10-01T01:23:20.972Z,9.20
2018-10-01T01:25:50.558Z,9.00
2018-10-01T01:28:20.091Z,9.00
2018-10-01T01:30:49.829Z,9.00
2018-10-01T01:33:19.627Z,9.10
2018-10-01T01:35:48.999Z,9.10
2018-10-01T01:38:18.671Z,9.00
2018-10-01T01:40:48.267Z,9.00
2018-10-01T01:43:18.116Z,8.90
2018-10-01T01:45:47.636Z,9.00
2018-10-01T01:48:17.107Z,9.00
2018-10-01T01:50:46.526Z,8.90
2018-10-01T01:53:16.288Z,8.90
2018-10-01T01:55:46.080Z,8.80
2018-10-01T01:58:15.556Z,8.90
2018-10-01T02:00:45.136Z,8.80
2018-10-01T02:03:14.737Z,8.90
2018-10-01T02:05:44.334Z,8.80
2018-10-01T02:08:13.697Z,8.90
2018-10-01T02:10:43.375Z,8.80
2018-10-01T02:13:12.724Z,8.80
2018-10-01T02:15:42.018Z,8.80
2018-10-01T02:18:11.543Z,8.60
2018-10-01T02:20:40.949Z,8.60
2018-10-01T02:23:10.463Z,8.70
2018-10-01T02:25:40.030Z,8.60
2018-10-01T02:28:09.678Z,8.60
2018-10-01T02:30:39.466Z,8.60
2018-10-01T02:33:08.996Z,8.50
2018-10-01T02:35:39.430Z,8.50
2018-10-01T02:38:09.328Z,8.60
2018-10-01T02:40:38.820Z,8.50
2018-10-01T02:43:08.391Z,8.60
2018-10-01T02:45:37.949Z,8.50
2018-10-01T02:48:07.442Z,8.40
2018-10-01T02:50:37.324Z,8.50
2018-10-01T02:53:12.039Z,8.40
2018-10-01T02:55:41.408Z,8.30
2018-10-01T02:58:11.428Z,8.20
2018-10-01T03:00:41.014Z,8.30
2018-10-01T03:03:10.796Z,8.20
2018-10-01T03:05:40.418Z,8.20
2018-10-01T03:08:09.897Z,8.20
2018-10-01T03:10:39.328Z,8.20
2018-10-01T03:13:08.897Z,8.10
2018-10-01T03:15:38.517Z,8.00
2018-10-01T03:18:09.470Z,8.10
2018-10-01T03:20:39.556Z,8.00
2018-10-01T03:23:08.627Z,8.00
2018-10-01T03:25:38.091Z,8.00
2018-10-01T03:28:07.898Z,7.90
2018-10-01T03:30:37.328Z,7.80
2018-10-01T03:33:06.959Z,7.70
2018-10-01T03:35:36.567Z,7.70
2018-10-01T03:38:05.959Z,7.80
2018-10-01T03:40:35.554Z,7.80
2018-10-01T03:43:05.187Z,7.90
2018-10-01T03:45:34.858Z,7.90
2018-10-01T03:48:04.968Z,7.80
2018-10-01T03:50:34.676Z,7.80
2018-10-01T03:53:04.370Z,7.70
2018-10-01T03:55:33.768Z,7.70
2018-10-01T03:58:03.170Z,7.70
2018-10-01T04:00:32.748Z,7.70
2018-10-01T04:03:02.276Z,7.80
2018-10-01T04:05:31.930Z,7.90
2018-10-01T04:08:08.735Z,7.90
2018-10-01T04:10:38.354Z,7.90
2018-10-01T04:13:07.979Z,7.80
2018-10-01T04:15:37.733Z,7.80
2018-10-01T04:18:07.472Z,7.70
2018-10-01T04:20:37.765Z,7.90
2018-10-01T04:23:07.327Z,7.90
2018-10-01T04:25:37.038Z,7.80
2018-10-01T04:28:06.661Z,7.80
2018-10-01T04:30:36.377Z,7.80
2018-10-01T04:33:06.413Z,7.80
2018-10-01T04:35:36.027Z,7.80
2018-10-01T04:38:05.647Z,7.90
2018-10-01T04:40:34.969Z,7.80
2018-10-01T04:43:05.379Z,8.00
2018-10-01T04:45:35.237Z,8.00
2018-10-01T04:48:04.842Z,7.90
2018-10-01T04:50:34.608Z,7.90
2018-10-01T04:53:04.249Z,8.00
2018-10-01T04:55:34.715Z,8.00
2018-10-01T04:58:05.347Z,8.00
2018-10-01T05:00:35.048Z,7.90
2018-10-01T05:03:04.375Z,7.90
2018-10-01T05:05:34.594Z,8.00
2018-10-01T05:08:04.189Z,8.10
2018-10-01T05:10:33.616Z,8.10
2018-10-01T05:13:03.165Z,8.10
2018-10-01T05:15:32.940Z,8.10
2018-10-01T05:18:02.503Z,8.10
2018-10-01T05:20:32.269Z,8.30
2018-10-01T05:23:01.779Z,8.40
2018-10-01T05:25:31.320Z,8.30
2018-10-01T05:28:01.320Z,8.30
2018-10-01T05:30:31.044Z,8.30
2018-10-01T05:33:00.506Z,8.30
2018-10-01T05:35:29.927Z,8.40
2018-10-01T05:37:59.701Z,8.40
2018-10-01T05:40:29.528Z,8.50
2018-10-01T05:42:58.935Z,8.50
2018-10-01T05:45:34.914Z,8.50
2018-10-01T05:48:04.641Z,8.50
2018-10-01T05:50:34.363Z,8.50
2018-10-01T05:53:03.744Z,8.50
2018-10-01T05:55:33.205Z,8.60
2018-10-01T05:58:03.627Z,8.70
2018-10-01T06:00:33.216Z,8.70
2018-10-01T06:03:02.770Z,8.60
2018-10-01T06:05:32.044Z,8.60
2018-10-01T06:08:01.668Z,8.50
2018-10-01T06:10:31.904Z,8.50
2018-10-01T06:13:01.251Z,8.50
2018-10-01T06:15:30.748Z,8.50
2018-10-01T06:18:00.573Z,8.50
2018-10-01T06:20:30.098Z,8.70
2018-10-01T06:22:59.650Z,8.70
2018-10-01T06:25:29.312Z,8.60
2018-10-01T06:27:58.937Z,8.60
2018-10-01T06:30:28.629Z,8.50
2018-10-01T06:32:58.372Z,8.50
2018-10-01T06:35:27.997Z,8.80
2018-10-01T06:37:57.483Z,8.80
2018-10-01T06:40:27.068Z,8.80
2018-10-01T06:42:56.948Z,8.80
2018-10-01T06:45:26.725Z,8.70
2018-10-01T06:47:56.528Z,8.80
2018-10-01T06:50:25.808Z,8.90
2018-10-01T06:52:55.512Z,8.80
2018-10-01T06:55:25.096Z,8.70
2018-10-01T06:57:54.849Z,8.80
2018-10-01T07:00:24.254Z,8.90
2018-10-01T07:02:53.597Z,8.90
2018-10-01T07:05:23.241Z,8.80
2018-10-01T07:07:52.623Z,8.80
2018-10-01T07:10:22.456Z,8.90
2018-10-01T07:12:52.171Z,9.00
2018-10-01T07:15:21.776Z,8.90
2018-10-01T07:17:51.476Z,9.00
2018-10-01T07:20:21.335Z,9.00
2018-10-01T07:22:50.989Z,8.90
2018-10-01T07:25:20.276Z,9.10
2018-10-01T07:27:49.655Z,9.10
2018-10-01T07:30:20.700Z,8.90
2018-10-01T07:32:50.194Z,8.80
2018-10-01T07:35:19.756Z,8.70
2018-10-01T07:37:49.317Z,8.70
2018-10-01T07:40:19.042Z,8.70
2018-10-01T07:42:48.428Z,8.70
2018-10-01T07:45:18.004Z,8.80
2018-10-01T07:47:47.662Z,8.80
2018-10-01T07:50:17.032Z,8.80
2018-10-01T07:52:46.687Z,8.80
2018-10-01T07:55:16.070Z,8.80
2018-10-01T07:57:45.663Z,9.00
2018-10-01T08:00:15.233Z,9.10
2018-10-01T08:02:44.959Z,9.20
2018-10-01T08:05:14.727Z,9.20
2018-10-01T08:07:44.657Z,9.20
2018-10-01T08:10:14.121Z,9.10
2018-10-01T08:12:43.550Z,9.20
2018-10-01T08:15:13.141Z,9.30
2018-10-01T08:17:42.470Z,9.40
2018-10-01T08:20:11.956Z,9.60
2018-10-01T08:22:41.548Z,9.50
2018-10-01T08:25:11.229Z,9.60
2018-10-01T08:27:40.584Z,9.60
2018-10-01T08:30:10.790Z,9.90
2018-10-01T08:32:40.264Z,10.00
2018-10-01T08:35:09.958Z,10.00
2018-10-01T08:37:39.666Z,9.60
2018-10-01T08:40:09.164Z,9.70
2018-10-01T08:42:38.769Z,9.60
2018-10-01T08:45:08.198Z,9.60
2018-10-01T08:47:37.644Z,9.60
2018-10-01T08:50:12.680Z,9.70
2018-10-01T08:52:52.454Z,9.70
2018-10-01T08:55:22.706Z,9.60
2018-10-01T08:57:53.250Z,9.90
2018-10-01T09:00:23.121Z,10.20
2018-10-01T09:02:52.856Z,10.30
2018-10-01T09:05:22.503Z,10.30
2018-10-01T09:07:52.023Z,10.20
2018-10-01T09:10:21.777Z,10.10
2018-10-01T09:12:51.257Z,9.80
2018-10-01T09:15:20.774Z,9.70
2018-10-01T09:17:50.123Z,9.70
2018-10-01T09:20:20.300Z,9.60
2018-10-01T09:22:50.171Z,9.70
2018-10-01T09:25:19.447Z,9.90
2018-10-01T09:27:49.244Z,10.10
2018-10-01T09:30:18.919Z,10.10
2018-10-01T09:32:48.416Z,10.00
2018-10-01T09:35:17.738Z,9.90
2018-10-01T09:37:47.260Z,10.00
2018-10-01T09:40:17.038Z,10.10
2018-10-01T09:42:46.809Z,10.30
2018-10-01T09:45:16.447Z,10.40
2018-10-01T09:47:46.148Z,10.50
2018-10-01T09:50:15.968Z,10.60
2018-10-01T09:52:45.368Z,10.50
2018-10-01T09:55:14.745Z,10.30
2018-10-01T09:57:44.357Z,10.40
2018-10-01T10:00:15.267Z,10.30
2018-10-01T10:02:44.688Z,10.40
2018-10-01T10:05:14.177Z,10.50
2018-10-01T10:07:43.873Z,10.70
2018-10-01T10:10:13.451Z,11.00
2018-10-01T10:12:42.800Z,10.90
2018-10-01T10:15:12.344Z,10.60
2018-10-01T10:17:42.043Z,10.60
2018-10-01T10:20:12.398Z,10.50
2018-10-01T10:22:42.142Z,10.30
2018-10-01T10:25:11.876Z,10.50
2018-10-01T10:27:41.782Z,10.80
2018-10-01T10:30:11.128Z,10.90
2018-10-01T10:32:40.766Z,10.90
2018-10-01T10:35:10.388Z,11.00
2018-10-01T10:37:39.745Z,10.90
2018-10-01T10:40:09.361Z,10.70
2018-10-01T10:42:39.151Z,10.80
2018-10-01T10:45:09.164Z,10.60
2018-10-01T10:47:38.977Z,10.80
2018-10-01T10:50:09.408Z,11.10
2018-10-01T10:52:39.104Z,11.50
2018-10-01T10:55:09.586Z,11.40
2018-10-01T10:57:39.117Z,11.10
2018-10-01T11:00:08.926Z,11.00
2018-10-01T11:02:38.576Z,11.10
2018-10-01T11:05:08.348Z,11.40
2018-10-01T11:07:37.884Z,11.90
2018-10-01T11:10:07.796Z,12.30
2018-10-01T11:12:37.217Z,12.30
2018-10-01T11:15:07.884Z,12.30
2018-10-01T11:17:37.542Z,12.50
2018-10-01T11:20:07.639Z,12.20
2018-10-01T11:22:37.016Z,12.00
2018-10-01T11:25:06.594Z,12.40
2018-10-01T11:27:37.029Z,12.80
2018-10-01T11:30:06.816Z,12.80
2018-10-01T11:32:36.633Z,12.80
2018-10-01T11:35:06.695Z,12.70
2018-10-01T11:37:36.272Z,12.80
2018-10-01T11:40:06.438Z,12.80
2018-10-01T11:42:36.032Z,12.80
2018-10-01T11:45:06.145Z,13.00
2018-10-01T11:47:35.697Z,13.00
2018-10-01T11:50:05.495Z,13.00
2018-10-01T11:52:35.068Z,13.10
2018-10-01T11:55:04.686Z,13.20
2018-10-01T11:57:34.328Z,12.80
2018-10-01T12:00:04.319Z,12.80
2018-10-01T12:02:33.755Z,13.10
2018-10-01T12:05:03.330Z,13.10
2018-10-01T12:07:32.815Z,13.10
2018-10-01T12:10:02.390Z,12.90
2018-10-01T12:12:32.096Z,13.10
2018-10-01T12:15:01.924Z,13.10
2018-10-01T12:17:31.264Z,13.00
2018-10-01T12:20:00.907Z,12.90
2018-10-01T12:22:30.574Z,12.90
2018-10-01T12:27:29.398Z,11.90
2018-10-01T12:29:59.116Z,11.50
2018-10-01T12:32:28.646Z,11.40
2018-10-01T12:34:58.130Z,11.40
2018-10-01T12:37:27.615Z,11.30
2018-10-01T12:39:57.054Z,11.20
2018-10-01T12:42:26.617Z,11.40
2018-10-01T12:44:56.461Z,11.30
2018-10-01T12:47:25.931Z,11.30
2018-10-01T12:49:55.642Z,11.30
2018-10-01T12:52:25.170Z,11.30
2018-10-01T12:54:54.510Z,11.20
2018-10-01T12:57:24.090Z,11.30
2018-10-01T12:59:53.661Z,11.30
2018-10-01T13:02:23.304Z,11.40
2018-10-01T13:04:52.958Z,11.30
2018-10-01T13:07:22.576Z,11.30
2018-10-01T13:09:52.274Z,11.30
2018-10-01T13:12:28.436Z,11.30
2018-10-01T13:14:58.088Z,11.20
2018-10-01T13:17:27.629Z,11.20
2018-10-01T13:19:57.250Z,11.20
2018-10-01T13:22:26.819Z,11.20
2018-10-01T13:24:56.260Z,11.10
2018-10-01T13:27:25.768Z,11.10
2018-10-01T13:29:55.236Z,11.10
2018-10-01T13:32:24.508Z,11.10
2018-10-01T13:34:54.009Z,11.10
2018-10-01T13:37:23.486Z,11.10
2018-10-01T13:39:53.051Z,11.10
2018-10-01T13:42:22.615Z,11.00
2018-10-01T13:44:52.201Z,11.10
2018-10-01T13:47:21.690Z,11.10
2018-10-01T13:49:51.321Z,11.00
2018-10-01T13:52:20.765Z,11.00
2018-10-01T13:54:50.258Z,11.00
2018-10-01T13:57:19.698Z,11.00
2018-10-01T13:59:49.759Z,10.90
2018-10-01T14:02:19.468Z,10.80
2018-10-01T14:04:49.168Z,10.70
2018-10-01T14:07:18.869Z,10.80
2018-10-01T14:09:48.484Z,10.80
2018-10-01T14:12:18.317Z,10.70
2018-10-01T14:14:47.984Z,10.80
2018-10-01T14:17:17.397Z,10.80
2018-10-01T14:19:47.606Z,10.80
2018-10-01T14:22:17.404Z,10.80
2018-10-01T14:24:47.104Z,10.80
2018-10-01T14:27:16.814Z,10.80
2018-10-01T14:29:46.417Z,10.80
2018-10-01T14:32:16.116Z,10.70
2018-10-01T14:34:45.547Z,10.70
2018-10-01T14:37:15.236Z,10.70
2018-10-01T14:39:44.916Z,10.70
2018-10-01T14:42:14.510Z,10.60
2018-10-01T14:44:44.093Z,10.60
2018-10-01T14:47:13.676Z,10.60
2018-10-01T14:49:43.175Z,10.60
2018-10-01T14:52:12.890Z,10.60
2018-10-01T14:54:42.476Z,10.60
2018-10-01T14:57:12.379Z,10.60
2018-10-01T14:59:41.697Z,10.60
2018-10-01T15:02:11.159Z,10.60
2018-10-01T15:04:41.001Z,10.60
2018-10-01T15:07:11.660Z,10.60
2018-10-01T15:09:41.109Z,10.60
2018-10-01T15:12:10.669Z,10.60
2018-10-01T15:14:40.384Z,10.50
2018-10-01T15:17:09.794Z,10.50
2018-10-01T15:19:39.256Z,10.50
2018-10-01T15:22:09.045Z,10.40
2018-10-01T15:24:38.515Z,10.40
2018-10-01T15:27:08.353Z,10.40
2018-10-01T15:29:37.829Z,10.30
2018-10-01T15:32:07.464Z,10.30
2018-10-01T15:34:36.790Z,10.30
2018-10-01T15:37:06.005Z,10.30
2018-10-01T15:39:35.813Z,10.20
2018-10-01T15:42:05.766Z,10.20
2018-10-01T15:44:35.615Z,10.20
2018-10-01T15:47:05.290Z,10.20
2018-10-01T15:49:34.746Z,10.20
2018-10-01T15:52:03.954Z,10.10
2018-10-01T15:54:33.674Z,10.10
2018-10-01T15:57:03.293Z,10.10
2018-10-01T15:59:32.843Z,10.10
2018-10-01T16:02:02.389Z,10.10
2018-10-01T16:04:31.980Z,10.20
2018-10-01T16:07:01.702Z,10.20
2018-10-01T16:09:31.258Z,9.90
2018-10-01T16:12:00.748Z,9.70
2018-10-01T16:14:30.555Z,9.70
2018-10-01T16:16:59.829Z,9.60
2018-10-01T16:19:29.385Z,9.60
2018-10-01T16:21:59.129Z,9.50
2018-10-01T16:24:28.509Z,9.50
2018-10-01T16:26:58.298Z,9.40
2018-10-01T16:29:28.046Z,9.40
2018-10-01T16:31:57.529Z,9.30
2018-10-01T16:34:26.857Z,9.30
2018-10-01T16:36:56.524Z,9.20
2018-10-01T16:39:26.025Z,9.20
2018-10-01T16:41:55.533Z,9.30
2018-10-01T16:44:25.231Z,9.20
2018-10-01T16:46:54.991Z,9.20
2018-10-01T16:49:24.610Z,9.10
2018-10-01T16:51:54.308Z,9.10
2018-10-01T16:54:23.957Z,9.00
2018-10-01T16:56:54.009Z,9.00
2018-10-01T16:59:23.676Z,9.00
2018-10-01T17:01:53.131Z,8.90
2018-10-01T17:04:22.525Z,8.90
2018-10-01T17:06:52.610Z,8.90
2018-10-01T17:09:21.966Z,8.90
2018-10-01T17:11:51.694Z,9.20
2018-10-01T17:14:21.251Z,9.30
2018-10-01T17:16:51.552Z,9.30
2018-10-01T17:19:21.052Z,9.10
2018-10-01T17:21:50.545Z,8.90
2018-10-01T17:24:20.015Z,8.90
2018-10-01T17:26:49.489Z,8.90
2018-10-01T17:29:19.443Z,8.80
2018-10-01T17:31:49.276Z,8.80
2018-10-01T17:34:18.892Z,8.70
2018-10-01T17:36:48.504Z,8.50
2018-10-01T17:39:17.696Z,8.70
2018-10-01T17:41:46.905Z,8.50
2018-10-01T17:44:16.055Z,8.40
2018-10-01T17:46:45.705Z,8.60
2018-10-01T17:49:15.234Z,8.60
2018-10-01T17:51:44.771Z,8.50
2018-10-01T17:54:14.500Z,8.30
2018-10-01T17:56:43.853Z,8.30
2018-10-01T17:59:13.090Z,8.40
2018-10-01T18:01:42.790Z,8.30
2018-10-01T18:04:12.635Z,8.10
2018-10-01T18:06:42.175Z,8.10
2018-10-01T18:09:12.743Z,8.00
2018-10-01T18:11:42.369Z,8.00
2018-10-01T18:14:12.117Z,8.10
2018-10-01T18:16:41.833Z,8.10
2018-10-01T18:19:11.846Z,8.10
2018-10-01T18:21:41.289Z,8.00
2018-10-01T18:24:10.857Z,8.20
2018-10-01T18:26:40.129Z,8.20
2018-10-01T18:29:09.570Z,8.00
2018-10-01T18:31:39.144Z,8.00
2018-10-01T18:34:08.788Z,7.90
2018-10-01T18:36:38.270Z,7.90
2018-10-01T18:39:14.284Z,8.10
2018-10-01T18:41:44.084Z,8.30
2018-10-01T18:44:13.560Z,8.60
2018-10-01T18:46:43.140Z,8.30
2018-10-01T18:49:12.835Z,7.90
2018-10-01T18:51:42.324Z,8.00
2018-10-01T18:54:11.851Z,7.90
2018-10-01T18:56:41.407Z,8.00
2018-10-01T18:59:10.816Z,7.80
2018-10-01T19:01:40.965Z,7.50
2018-10-01T19:04:10.609Z,7.60
2018-10-01T19:06:40.126Z,7.90
2018-10-01T19:09:11.873Z,7.60
2018-10-01T19:11:42.164Z,7.50
2018-10-01T19:14:12.014Z,7.40
2018-10-01T19:16:41.319Z,7.40
2018-10-01T19:19:11.019Z,7.50
2018-10-01T19:21:40.995Z,7.60
2018-10-01T19:24:10.415Z,7.80
2018-10-01T19:26:39.995Z,7.60
2018-10-01T19:29:09.746Z,7.80
2018-10-01T19:31:39.542Z,7.70
2018-10-01T19:34:09.001Z,7.80
2018-10-01T19:36:39.065Z,7.70
2018-10-01T19:39:09.850Z,7.60
2018-10-01T19:41:39.172Z,7.70
2018-10-01T19:44:08.628Z,7.20
2018-10-01T19:46:38.503Z,7.10
2018-10-01T19:49:08.164Z,7.20
2018-10-01T19:51:37.614Z,7.00
2018-10-01T19:54:07.395Z,6.90
2018-10-01T19:56:37.245Z,6.70
2018-10-01T19:59:06.662Z,6.70
2018-10-01T20:01:36.149Z,6.80
2018-10-01T20:04:05.711Z,6.70
2018-10-01T20:06:35.328Z,6.60
2018-10-01T20:09:07.114Z,6.70
2018-10-01T20:11:37.498Z,6.50
2018-10-01T20:14:07.365Z,6.40
2018-10-01T20:16:37.041Z,6.30
2018-10-01T20:19:06.950Z,6.40
2018-10-01T20:21:36.453Z,6.50
2018-10-01T20:24:05.922Z,6.60
2018-10-01T20:26:35.840Z,6.80
2018-10-01T20:29:05.735Z,6.80
2018-10-01T20:31:35.067Z,6.90
2018-10-01T20:34:04.574Z,7.10
2018-10-01T20:36:34.252Z,6.70
2018-10-01T20:39:05.290Z,6.40
2018-10-01T20:41:34.718Z,6.20
2018-10-01T20:44:04.436Z,6.20
2018-10-01T20:46:33.767Z,6.20
2018-10-01T20:49:03.794Z,6.20
2018-10-01T20:51:33.265Z,6.10
2018-10-01T20:54:02.944Z,6.10
2018-10-01T20:56:32.551Z,6.10
2018-10-01T20:59:02.018Z,6.50
2018-10-01T21:01:31.648Z,6.70
2018-10-01T21:04:02.026Z,6.50
2018-10-01T21:06:31.834Z,6.40
2018-10-01T21:09:01.985Z,6.20
2018-10-01T21:11:31.783Z,6.30
2018-10-01T21:14:01.028Z,6.40
2018-10-01T21:16:30.764Z,6.40
2018-10-01T21:19:00.251Z,6.50
2018-10-01T21:21:29.938Z,6.70
2018-10-01T21:23:59.818Z,6.50
2018-10-01T21:26:29.208Z,6.50
2018-10-01T21:28:59.227Z,6.60
2018-10-01T21:31:29.048Z,6.90
2018-10-01T21:33:58.816Z,7.00
2018-10-01T21:36:28.448Z,7.00
2018-10-01T21:38:58.089Z,7.00
2018-10-01T21:41:27.816Z,7.00
2018-10-01T21:43:58.033Z,7.00
2018-10-01T21:46:27.810Z,7.00
2018-10-01T21:48:57.315Z,7.20
2018-10-01T21:51:26.689Z,7.20
2018-10-01T21:53:56.307Z,7.10
2018-10-01T21:56:25.569Z,7.10
2018-10-01T21:58:55.516Z,7.10
2018-10-01T22:01:30.220Z,7.10
2018-10-01T22:03:59.468Z,7.00
2018-10-01T22:06:28.853Z,7.00
2018-10-01T22:08:58.307Z,7.10
2018-10-01T22:11:28.087Z,7.00
2018-10-01T22:13:57.888Z,7.00
2018-10-01T22:16:27.569Z,7.10
2018-10-01T22:18:57.958Z,7.20
2018-10-01T22:21:27.513Z,7.20
2018-10-01T22:23:57.130Z,7.20
2018-10-01T22:26:27.045Z,7.10
2018-10-01T22:28:56.547Z,7.00
2018-10-01T22:31:26.214Z,6.90
2018-10-01T22:33:55.944Z,6.90
2018-10-01T22:36:25.559Z,6.90
2018-10-01T22:38:56.167Z,6.90
2018-10-01T22:41:26.104Z,7.00
2018-10-01T22:43:55.758Z,7.00
2018-10-01T22:46:25.300Z,7.00
2018-10-01T22:48:54.685Z,7.00
2018-10-01T22:51:25.286Z,7.20
2018-10-01T22:53:54.798Z,7.30
2018-10-01T22:56:24.206Z,7.20
2018-10-01T22:58:53.695Z,7.20
2018-10-01T23:01:23.144Z,7.20
2018-10-01T23:03:52.535Z,7.10
2018-10-01T23:06:22.164Z,7.10
2018-10-01T23:08:51.615Z,7.10
2018-10-01T23:11:21.233Z,7.30
2018-10-01T23:13:51.003Z,7.30
2018-10-01T23:16:20.694Z,7.30
2018-10-01T23:18:50.187Z,7.30
2018-10-01T23:21:19.736Z,7.50
2018-10-01T23:23:49.468Z,7.40
2018-10-01T23:26:19.089Z,7.30
2018-10-01T23:28:48.608Z,7.20
2018-10-01T23:31:18.070Z,7.20
2018-10-01T23:33:47.677Z,7.20
2018-10-01T23:36:17.207Z,7.10
2018-10-01T23:38:47.633Z,7.10
2018-10-01T23:41:17.146Z,7.20
2018-10-01T23:43:46.881Z,7.20
2018-10-01T23:46:16.539Z,7.20
2018-10-01T23:48:46.083Z,7.10
2018-10-01T23:51:16.503Z,7.10
2018-10-01T23:53:45.934Z,7.10
2018-10-01T23:56:15.401Z,7.10
2018-10-01T23:58:45.054Z,7.00
